Flight Track Log - Related Links

Times and Time Zones

All times are in EDT time to prevent confusion due to time zone crossing. See the CTA400 flight status page for this flight to view local times or setup timezone preferences in your user account.

Time Position Orientation Groundspeed Altitude Reporting Facility
EDT Latitude Longitude Course Direction KTS MPH feet Rate Location/Type
Mon 08:16:59 AM 32.9667 -96.8333 140° Southeast 105 121 1,000  Level Dallas / Fort Worth TRACON
Mon 08:17:42 AM 32.9500 -96.8167 140° Southeast 119 137 2,100 1,278 Climbing Dallas / Fort Worth TRACON
Mon 08:18:47 AM 32.9000 -96.8167 180° South 104 120 3,300 720 Climbing Dallas / Fort Worth TRACON
Mon 08:19:47 AM 32.8833 -96.8500 239° Southwest 175 201 3,600 421 Climbing Dallas / Fort Worth TRACON
Mon 08:20:41 AM 32.9000 -96.9000 292° West 165 190 4,100 250 Climbing Dallas / Fort Worth TRACON
Mon 08:21:47 AM 32.9000 -96.9667 270° West 187 215 4,100  Level Dallas / Fort Worth TRACON
Mon 08:22:47 AM 32.9000 -97.0333 270° West 194 223 4,100  Level Dallas / Fort Worth TRACON
Mon 08:23:47 AM 32.9000 -97.1000 270° West 191 220 4,100  Level Dallas / Fort Worth TRACON
Mon 08:24:41 AM 32.9000 -97.1500 270° West 191 220 4,100  Level Dallas / Fort Worth TRACON
Mon 08:25:41 AM 32.9000 -97.2167 270° West 192 221 4,100  Level Dallas / Fort Worth TRACON
Mon 08:26:41 AM 32.9000 -97.2833 270° West 190 219 4,100 300 Level Dallas / Fort Worth TRACON
Mon 08:27:41 AM 32.9167 -97.3333 292° West 178 205 4,700 650 Climbing Dallas / Fort Worth TRACON
Mon 08:28:41 AM 32.9167 -97.4000 270° West 179 206 5,400 700 Climbing Dallas / Fort Worth TRACON
Mon 08:29:41 AM 32.9333 -97.4500 292° West 167 192 6,100 550 Climbing Dallas / Fort Worth TRACON
Mon 08:30:41 AM 32.9500 -97.5000 292° West 173 199 6,500 250 Climbing Dallas / Fort Worth TRACON
Mon 08:31:41 AM 32.9500 -97.5667 270° West 190 219 6,600 52 Climbing Dallas / Fort Worth TRACON
Mon 08:32:37 AM 32.9647 -97.6214 288° West 197 227 6,600 207 Level Fort Worth Center
Mon 08:33:37 AM 32.9772 -97.6733 286° West 197 227 7,000 400 Climbing Fort Worth Center
Mon 08:34:37 AM 32.9917 -97.7378 285° West 187 215 7,400 450 Climbing Fort Worth Center
Mon 08:35:37 AM 33.0019 -97.7875 284° West 182 209 7,900 500 Climbing Fort Worth Center
Mon 08:36:37 AM 33.0164 -97.8469 286° West 182 209 8,400 400 Climbing Fort Worth Center
Mon 08:37:37 AM 33.0244 -97.8992 280° West 182 209 8,700 150 Climbing Fort Worth Center
Mon 08:38:37 AM 33.0325 -97.9661 278° West 187 215 8,700 -50 Level Fort Worth Center
Mon 08:39:37 AM 33.0364 -98.0231 275° West 187 215 8,600 -50 Descending Fort Worth Center
Mon 08:40:37 AM 33.0444 -98.0900 278° West 193 222 8,600 -50 Level Fort Worth Center
Mon 08:41:37 AM 33.0567 -98.1472 284° West 193 222 8,500 -50 Descending Fort Worth Center
Mon 08:42:37 AM 33.0689 -98.2142 282° West 199 229 8,500  Level Fort Worth Center
Mon 08:43:37 AM 33.0789 -98.2736 281° West 199 229 8,500 50 Level Fort Worth Center
Mon 08:44:37 AM 33.0886 -98.3408 280° West 194 223 8,600 50 Climbing Fort Worth Center
Mon 08:45:37 AM 33.1008 -98.3981 284° West 194 223 8,600 -50 Level Fort Worth Center
Mon 08:46:37 AM 33.1169 -98.4675 286° West 199 229 8,500 -50 Descending Fort Worth Center
Mon 08:47:37 AM 33.1269 -98.5297 281° West 204 235 8,500  Level Fort Worth Center
Mon 08:48:37 AM 33.1347 -98.5919 279° West 199 229 8,500  Level Fort Worth Center
Mon 08:49:37 AM 33.1444 -98.6539 281° West 199 229 8,500  Level Fort Worth Center
Mon 08:50:37 AM 33.1522 -98.7161 279° West 199 229 8,500  Level Fort Worth Center
Mon 08:51:37 AM 33.1642 -98.7808 282° West 199 229 8,500  Level Fort Worth Center
Mon 08:52:37 AM 33.1758 -98.8431 283° West 199 229 8,500  Level Fort Worth Center
Mon 08:53:37 AM 33.1856 -98.9053 281° West 199 229 8,500  Level Fort Worth Center
Mon 08:54:37 AM 33.1975 -98.9650 283° West 199 229 8,500  Level Fort Worth Center
Mon 08:55:37 AM 33.2092 -99.0272 283° West 199 229 8,500  Level Fort Worth Center
Mon 08:56:37 AM 33.2208 -99.0897 283° West 199 229 8,500 50 Level Fort Worth Center
Mon 08:57:37 AM 33.2306 -99.1494 281° West 199 229 8,600 100 Climbing Fort Worth Center
Mon 08:58:37 AM 33.2400 -99.2142 280° West 199 229 8,700 50 Climbing Fort Worth Center
Mon 08:59:37 AM 33.2517 -99.2714 284° West 199 229 8,700 -150 Level Fort Worth Center
Mon 09:00:37 AM 33.2653 -99.3339 285° West 199 229 8,400 -100 Descending Fort Worth Center
Mon 09:01:37 AM 33.2831 -99.3989 288° West 204 235 8,500 150 Climbing Fort Worth Center
Mon 09:02:37 AM 33.2967 -99.4589 285° West 199 229 8,700 50 Climbing Fort Worth Center
Mon 09:03:37 AM 33.3103 -99.5164 286° West 194 223 8,600 -100 Descending Fort Worth Center
Mon 09:04:37 AM 33.3239 -99.5789 285° West 194 223 8,500 -50 Descending Fort Worth Center
Mon 09:05:37 AM 33.3394 -99.6439 286° West 194 223 8,500 50 Level Fort Worth Center
Mon 09:06:37 AM 33.3572 -99.7039 290° West 194 223 8,600 50 Climbing Fort Worth Center
Mon 09:07:37 AM 33.3708 -99.7614 286° West 194 223 8,600 50 Level Fort Worth Center
Mon 09:08:37 AM 33.3842 -99.8242 284° West 194 223 8,700  Climbing Fort Worth Center
Mon 09:09:37 AM 33.3933 -99.8864 280° West 194 223 8,600 -100 Descending Fort Worth Center
Mon 09:10:37 AM 33.4089 -99.9492 287° West 194 223 8,500 -50 Descending Fort Worth Center
Mon 09:11:37 AM 33.4222 -100.0092 285° West 194 223 8,500  Level Fort Worth Center
Mon 09:12:37 AM 33.4333 -100.0719 282° West 194 223 8,500 50 Level Fort Worth Center
Mon 09:13:37 AM 33.4444 -100.1369 282° West 199 229 8,600 50 Climbing Fort Worth Center
Mon 09:14:37 AM 33.4578 -100.1994 284° West 199 229 8,600  Level Fort Worth Center
Mon 09:15:37 AM 33.4753 -100.2597 289° West 199 229 8,600 -50 Level Fort Worth Center
Mon 09:16:37 AM 33.4906 -100.3200 287° West 199 229 8,500  Descending Fort Worth Center
Mon 09:17:37 AM 33.5014 -100.3853 281° West 194 223 8,600 50 Climbing Fort Worth Center
Mon 09:18:37 AM 33.5103 -100.4503 279° West 199 229 8,600  Level Fort Worth Center
Mon 09:19:37 AM 33.5236 -100.5106 285° West 199 229 8,600  Level Fort Worth Center
Mon 09:20:37 AM 33.5367 -100.5708 285° West 199 229 8,600  Level Fort Worth Center
Mon 09:21:37 AM 33.5475 -100.6361 281° West 204 235 8,600 -50 Level Fort Worth Center
Mon 09:22:37 AM 33.5542 -100.7011 277° West 199 229 8,500  Descending Fort Worth Center
Mon 09:23:37 AM 33.5653 -100.7564 284° West 198 228 8,600 71 Climbing Fort Worth Center
Mon 09:24:02 AM 33.5622 -100.7911 264° West 192 221 8,600  Level Fort Worth Center
Mon 09:24:26 AM 33.5636 -100.8161 274° West 192 221 8,600  Level Fort Worth Center
Mon 09:25:27 AM 33.5722 -100.8811 279° West 192 221 8,600  Level Fort Worth Center
Mon 09:26:27 AM 33.5789 -100.9439 277° West 187 215 8,600  Level Fort Worth Center
Mon 09:27:34 AM 33.5853 -101.0114 277° West 193 222 8,600 47 Level Fort Worth Center
Mon 09:28:35 AM 33.5875 -101.0764 272° West 192 221 8,700  Climbing Fort Worth Center
Mon 09:29:29 AM 33.5858 -101.1361 268° West 191 220 8,600 -49 Descending Fort Worth Center
Mon 09:30:37 AM 33.5939 -101.2086 278° West 198 228 8,600  Level Fort Worth Center
Mon 09:31:30 AM 33.5964 -101.2686 273° West 194 223 8,600 -53 Level Fort Worth Center
Mon 09:32:31 AM 33.6028 -101.3339 277° West 193 222 8,500 -344 Descending Fort Worth Center
Mon 09:33:32 AM 33.6111 -101.3964 279° West 195 224 7,900 -744 Descending Fort Worth Center
Mon 09:34:32 AM 33.6281 -101.4572 289° West 196 226 7,000 -793 Descending Fort Worth Center
Mon 09:35:33 AM 33.6428 -101.5178 286° West 187 215 6,300 -595 Descending Fort Worth Center
Mon 09:36:33 AM 33.6575 -101.5783 286° West 181 208 5,800 -484 Descending Fort Worth Center
Mon 09:37:37 AM 33.6639 -101.6311 278° West 181 208 5,300 -443 Descending Fort Worth Center
Mon 09:38:35 AM 33.6642 -101.6858 270° West 148 170 4,900 -508 Descending Fort Worth Center
Mon 09:39:35 AM 33.6628 -101.7308 268° West 123 142 4,300 -545 Descending Fort Worth Center
Mon 09:40:36 AM 33.6592 -101.7706 264° West 113 130 3,800 -492 Descending Fort Worth Center
Mon 09:42:00 AM 33.6500 -101.8167 279° West  Level FlightAware Approximate
Mon 09:49:00 AM 33.6637 -101.8206 279° West  Level Estimated
Mon 09:50:00 AM 33.6637 -101.8206 279° West  Level Estimated

Login

Don't have an account? Register now (free) for customized features, flight alerts, and more!